メインページ
METAR-TAF:

METAR-TAF

空港 :

トリポリ, リビア

Mitiga International Airport

緯度: 32-54N, 経度: 13-17E, 海抜: 11m

現時点の気象観測

当レポートは1時間46分前の07:55(UTC)に作成
東/南東の風 6kt
気温 22°C
湿度 50%
気圧 1020 hPa
視程: 8000m
晴天

METAR: HLLM 250755Z 12006KT 8000 SKC 22/11 Q1020

時間: 11:41 (09:41 UTC)

予報

当レポートは4時間41分前の05:00(UTC)に作成
予報は25日の 06時(UTC)から 26日の 06時(UTC)まで有効
南/南東の風 12kt
視程: 8000m
25日の 09時(UTC)から 25日の 11時(UTC)まで徐々に
変向風 2kt
視程10km以上
1,500メートル以下は雲なし、積乱雲なし
25日の 14時(UTC)から 25日の 16時(UTC)まで徐々に
の風 12kt
26日の 04時(UTC)から 26日の 06時(UTC)まで徐々に
西/南西の風 12kt
視程: 8000m
高度2500ftの雲はほとんどない

TAF: HLLM 250500Z 2506/2606 16012KT 8000 NSC BECMG 2509/2511 VRB02KT CAVOK BECMG 2514/2516 09012KT BECMG 2604/2606 24012KT 8000 FEW025

4,000以上の空港の気象観測と天気予報(METAR報とTAF報)

利用可能な観測所は地図上に黄色い丸と赤い丸で示す。

丸の上にカーソルを重ねると観測所名を参照できる。

次にクリックすると気象観測と天気予報を参照できる。

マップの切り替え:黒色「×」印の緑ボタンをクリックして拡大、「-」印の緑ボタンをクリックして縮小、緑色の三角印をクリックして隣りの地図に切り替え


METAR-TAF: